Nettie, WV

8:28 PM EDT on August 01, 2014 (GMT -0400)
Ingalls (KHSP) Elev 3793 ft | 37.95 °N, 79.83 °W | Change Station

Current weather conditions updated 13 minutes ago

Scattered Clouds
Scattered Clouds
58 °F
Feels Like 58 °F
N
7
Wind Variable Wind from SE

Tomorrow is forecast to be Much Warmer than today. Scattered thunderstorms possible.

Today
High -- | Low -- °F
--% Chance of Precip.
Yesterday
High -- | Low -- °F
Precip. -- in
6:25 AM 8:32 PM
Waxing Crescent, 30% visible
Pressure 30.26 in
Visibility 10.0 miles
Clouds Scattered Clouds 1900 ft
Dew Point 51 °F
Humidity 78%
Rainfall 0.00 in
Snow Depth Not available.
UV 0 out of 12
Pollen 4.40 out of 12
Air Quality Not available.
Flu Activity Not available.
METAR KHSP 020015Z AUTO 13006KT 10SM SCT019 14/11 A3026 RMK AO2 T01440107

More Conditions Fewer Conditions

Pressure 30.26 in
Visibility 10.0 miles
Clouds Scattered Clouds 1900 ft
Dew Point 51 °F
Humidity 78%
Rainfall 0.00 in
Snow Depth Not available.
UV 0 out of 12
Pollen 4.40 out of 12
Air Quality Not available.
Flu Activity Not available.
METAR KHSP 020015Z AUTO 13006KT 10SM SCT019 14/11 A3026 RMK AO2 T01440107

More Conditions Fewer Conditions

10-Day Weather Forecast

Almanac

Astronomy

Aug. 01, 2014 Rise Set
Actual Time 6:25 AM EDT 8:32 PM EDT
Civil Twilight 5:55 AM EDT 9:01 PM EDT
Nautical Twilight 5:20 AM EDT 9:37 PM EDT
Astronomical Twilight 4:41 AM EDT 10:15 PM EDT
Moon 11:42 AM EDT (8/1) 11:21 PM EDT (8/1)
Length of Visible Light 15h 05m
Length of Day
14h 07m
Tomorrow will be 1m 53s shorter.
Waxing Crescent, 30% of the Moon is Illuminated
Today
Waxing Crescent
Aug 3
First Quarter
Aug 10
Full
Aug 17
Last Quarter
Aug 25
New

Today's Extremes

State Highs State Lows

Community

WunderPhotos

Upload Photos

1,739,763 photos uploaded!

Nearby

Snow Depth

Station Depth Elevation
No new snow has been reported.

Earthquake Activity

City Distance Mag. Time & Date
No recent earthquake activity has been reported nearby.
Minimum magnitude displayed is 2.5.

Coastal Water Temperatures

Place Temperature
No Stations Reporting

Nearby Weather Stations

Station Location Temp. Dew Point Humidity Wind Precip. Elev Updated Type
Mt Nebo, WV 66.8 °F 58 °F 72% North  at  0.0 mph 0.00 in / hr 2195 ft 8:27 PM EDT Rapid Fire
Webster Springs, Webster Springs, WV 68.4 °F 59 °F 72% SW  at  2.0 mph 0.00 in / hr 1526 ft 8:26 PM EDT Normal

Show More Stations Show Fewer Stations